Time;durP1;ratioP1;P1;durP2;ratioP2;P2;SDS_P1;SDS_P2;PMS_P1;PMS_P2;Temp;Humidity;BMP_temperature;BMP_pressure;BME280_temperature;BME280_humidity;BME280_pressure;Samples;Min_cycle;Max_cycle;Signal;HPM_P1;HPM_P2
2022/05/15 00:01:04;;;;;;;31.50;7.55;;;17.10;99.90;;;;;;5074455;28;20028;-75
2022/05/15 00:03:40;;;;;;;26.52;7.22;;;17.00;99.90;;;;;;5058501;28;20024;-75
2022/05/15 00:06:06;;;;;;;22.60;7.60;;;17.00;99.90;;;;;;5072647;28;20047;-73
2022/05/15 00:08:35;;;;;;;22.65;7.03;;;16.90;99.90;;;;;;5073654;28;20445;-73
2022/05/15 00:11:03;;;;;;;30.63;7.35;;;16.90;99.90;;;;;;5074302;28;20382;-74
2022/05/15 00:13:30;;;;;;;30.27;7.30;;;17.00;99.90;;;;;;5074100;28;20107;-73
2022/05/15 00:15:56;;;;;;;27.98;7.22;;;17.10;99.90;;;;;;5073877;28;20031;-73
2022/05/15 00:18:23;;;;;;;36.13;7.43;;;17.10;99.90;;;;;;5072579;28;20501;-74
2022/05/15 00:20:51;;;;;;;34.80;7.68;;;17.10;99.90;;;;;;5073359;28;20469;-74
2022/05/15 00:23:19;;;;;;;26.63;8.05;;;17.10;99.90;;;;;;5073748;28;20071;-74
2022/05/15 00:25:46;;;;;;;28.90;7.88;;;17.00;99.90;;;;;;5073940;28;20051;-77
2022/05/15 00:28:13;;;;;;;28.48;8.18;;;17.00;99.90;;;;;;5073610;28;20046;-73
2022/05/15 00:30:40;;;;;;;27.33;6.90;;;16.70;99.90;;;;;;5073426;28;20075;-74
2022/05/15 00:33:06;;;;;;;33.15;7.20;;;16.90;99.90;;;;;;5073511;28;20027;-75
2022/05/15 00:35:35;;;;;;;23.13;7.20;;;16.80;99.90;;;;;;5072032;28;20029;-75
2022/05/15 00:38:03;;;;;;;23.60;7.50;;;16.90;99.90;;;;;;5073137;28;20043;-76
2022/05/15 00:40:29;;;;;;;27.80;8.50;;;16.70;99.90;;;;;;5073404;28;20099;-75
2022/05/15 00:42:55;;;;;;;30.80;7.07;;;16.70;99.90;;;;;;5072486;28;20040;-75
2022/05/15 00:45:23;;;;;;;25.40;6.70;;;16.70;99.90;;;;;;5073291;28;20103;-75
2022/05/15 00:47:49;;;;;;;29.13;7.32;;;16.70;99.90;;;;;;5071402;28;20648;-74
2022/05/15 00:50:27;;;;;;;20.25;6.32;;;16.80;99.90;;;;;;5073260;28;20071;-75
2022/05/15 00:52:57;;;;;;;19.85;6.75;;;16.60;99.90;;;;;;5073152;28;20480;-76
2022/05/15 00:55:32;;;;;;;23.75;6.80;;;16.80;99.90;;;;;;5088664;28;20029;-75
2022/05/15 00:58:04;;;;;;;37.03;7.78;;;17.00;99.90;;;;;;5071910;28;20029;-75
2022/05/15 01:00:32;;;;;;;;;;;16.80;99.90;;;;;;5071522;28;20468;-74
2022/05/15 01:03:05;;;;;;;22.75;6.50;;;16.60;99.90;;;;;;5075727;28;20374;-74
2022/05/15 01:05:37;;;;;;;30.05;7.60;;;16.50;99.90;;;;;;5091790;28;20036;-73
2022/05/15 01:08:05;;;;;;;26.10;7.82;;;16.30;99.90;;;;;;5091591;28;20032;-73
2022/05/15 01:10:35;;;;;;;26.90;6.35;;;16.60;99.90;;;;;;5091846;28;20067;-73
2022/05/15 01:13:01;;;;;;;25.02;7.38;;;16.60;99.90;;;;;;5084622;28;20024;-74
2022/05/15 01:15:28;;;;;;;35.45;7.95;;;16.60;99.90;;;;;;5071505;28;20033;-74
2022/05/15 01:17:57;;;;;;;24.08;6.22;;;16.40;99.90;;;;;;5071322;28;20477;-75
2022/05/15 01:20:29;;;;;;;30.92;7.80;;;16.30;99.90;;;;;;5071553;28;20484;-74
2022/05/15 01:22:56;;;;;;;28.52;6.93;;;16.10;99.90;;;;;;5071498;28;20070;-73
2022/05/15 01:25:25;;;;;;;31.23;7.63;;;16.20;99.90;;;;;;5071578;28;20017;-73
2022/05/15 01:28:11;;;;;;;26.15;7.72;;;16.40;99.90;;;;;;5071020;28;20028;-73
2022/05/15 01:30:41;;;;;;;32.25;7.68;;;16.50;99.90;;;;;;5071055;28;20033;-74
2022/05/15 01:33:08;;;;;;;30.75;7.13;;;16.50;99.90;;;;;;5072631;28;20032;-74
2022/05/15 01:35:34;;;;;;;24.42;6.43;;;16.10;99.90;;;;;;5071408;28;20061;-73
2022/05/15 01:38:02;;;;;;;25.83;8.27;;;16.20;99.90;;;;;;5071114;28;20024;-74
2022/05/15 01:40:29;;;;;;;22.45;6.75;;;16.10;99.90;;;;;;5071262;28;20027;-74
2022/05/15 01:42:54;;;;;;;29.17;6.68;;;16.00;99.90;;;;;;5072627;28;20025;-74
2022/05/15 01:45:21;;;;;;;26.17;6.65;;;16.10;99.90;;;;;;5072742;28;20036;-73
2022/05/15 01:47:47;;;;;;;31.77;7.82;;;15.80;99.90;;;;;;5084383;28;20028;-73
2022/05/15 01:50:14;;;;;;;34.40;7.18;;;15.70;99.90;;;;;;5095323;28;20031;-74
2022/05/15 01:52:41;;;;;;;29.75;6.93;;;15.60;99.90;;;;;;5095624;28;20043;-73
2022/05/15 01:55:08;;;;;;;35.70;7.70;;;15.50;99.90;;;;;;5095856;28;20588;-74
2022/05/15 01:57:34;;;;;;;28.90;6.65;;;15.70;99.90;;;;;;5095625;28;20062;-73
2022/05/15 02:00:00;;;;;;;26.20;6.95;;;15.80;99.90;;;;;;5095349;28;20036;-74
2022/05/15 02:02:26;;;;;;;33.35;7.55;;;15.90;99.90;;;;;;5095715;28;20025;-72
2022/05/15 02:04:52;;;;;;;23.35;6.38;;;15.80;99.90;;;;;;5076489;28;20089;-74
2022/05/15 02:07:19;;;;;;;31.48;6.75;;;15.70;99.90;;;;;;5074966;28;20032;-76
2022/05/15 02:09:45;;;;;;;36.08;7.93;;;15.90;99.90;;;;;;5075163;28;20048;-73
2022/05/15 02:12:11;;;;;;;27.08;7.43;;;16.00;99.90;;;;;;5075228;28;20500;-77
2022/05/15 02:14:37;;;;;;;28.23;8.13;;;15.90;99.90;;;;;;5074647;28;20033;-77
2022/05/15 02:17:03;;;;;;;26.73;7.30;;;15.70;99.90;;;;;;5074954;28;20024;-76
2022/05/15 02:19:29;;;;;;;28.70;7.75;;;15.70;99.90;;;;;;5074840;28;20119;-74
2022/05/15 02:21:55;;;;;;;28.80;8.27;;;15.50;99.90;;;;;;5074743;28;20021;-73
2022/05/15 02:24:20;;;;;;;25.08;7.25;;;15.40;99.90;;;;;;5074625;28;20028;-73
2022/05/15 02:26:46;;;;;;;35.78;6.90;;;15.20;99.90;;;;;;5074853;28;20024;-77
2022/05/15 02:29:12;;;;;;;30.05;7.72;;;15.20;99.90;;;;;;5073981;28;20025;-73
2022/05/15 02:31:38;;;;;;;30.75;7.40;;;15.40;99.90;;;;;;5074585;28;20119;-77
2022/05/15 02:34:04;;;;;;;28.13;6.85;;;15.30;99.90;;;;;;5075909;28;20024;-76
2022/05/15 02:36:31;;;;;;;29.63;7.07;;;15.30;99.90;;;;;;5074721;28;20048;-77
2022/05/15 02:38:57;;;;;;;37.80;8.18;;;15.10;99.90;;;;;;5073559;28;20032;-75
2022/05/15 02:41:25;;;;;;;26.10;7.25;;;15.30;99.90;;;;;;5074392;28;20043;-77
2022/05/15 02:43:51;;;;;;;29.83;7.28;;;15.60;99.90;;;;;;5074133;28;20100;-74
2022/05/15 02:46:16;;;;;;;37.25;8.15;;;15.30;99.90;;;;;;5074531;28;20040;-74
2022/05/15 02:51:29;;;;;;;26.88;7.20;;;15.40;99.90;;;;;;5094653;28;20391;-74
2022/05/15 02:53:55;;;;;;;36.95;9.45;;;15.30;99.90;;;;;;5094645;28;20120;-76
2022/05/15 02:56:25;;;;;;;32.40;7.90;;;15.40;99.90;;;;;;5095596;28;20519;-75
2022/05/15 02:58:51;;;;;;;25.15;7.13;;;15.40;99.90;;;;;;5094060;28;20024;-75
2022/05/15 03:01:18;;;;;;;27.58;7.70;;;15.50;99.90;;;;;;5095887;28;20031;-75
2022/05/15 03:03:44;;;;;;;31.42;8.18;;;15.20;99.90;;;;;;5094359;28;20116;-75
2022/05/15 03:06:11;;;;;;;33.53;7.68;;;15.40;99.90;;;;;;5093818;28;20024;-76
2022/05/15 03:08:41;;;;;;;28.58;7.82;;;15.30;99.90;;;;;;5095069;28;20063;-74
2022/05/15 03:11:08;;;;;;;39.65;7.95;;;15.00;99.90;;;;;;5094058;28;20445;-75
2022/05/15 03:13:35;;;;;;;31.83;8.27;;;15.00;99.90;;;;;;5094507;28;20365;-76
2022/05/15 03:16:02;;;;;;;30.83;8.52;;;15.10;99.90;;;;;;5094172;28;20078;-76
2022/05/15 03:18:28;;;;;;;26.10;7.10;;;15.10;99.90;;;;;;5094158;28;20439;-76
2022/05/15 03:20:54;;;;;;;23.90;7.63;;;15.00;99.90;;;;;;5095528;28;20051;-75
2022/05/15 03:23:20;;;;;;;29.48;8.23;;;15.20;99.90;;;;;;5094212;28;20024;-76
2022/05/15 03:25:46;;;;;;;29.10;7.95;;;15.10;99.90;;;;;;5095167;28;20024;-75
2022/05/15 03:28:12;;;;;;;29.38;8.40;;;15.10;99.90;;;;;;5095455;28;20039;-74
2022/05/15 03:30:43;;;;;;;25.95;7.80;;;15.20;99.90;;;;;;5093969;28;20036;-75
2022/05/15 03:33:09;;;;;;;32.22;7.75;;;15.30;99.90;;;;;;5096060;28;20081;-76
2022/05/15 03:35:37;;;;;;;33.88;8.27;;;15.20;99.90;;;;;;5094212;28;20038;-76
2022/05/15 03:38:06;;;;;;;25.77;7.57;;;15.00;99.90;;;;;;5095284;28;20031;-74
2022/05/15 03:40:33;;;;;;;21.85;7.40;;;15.10;99.90;;;;;;5094598;28;20032;-75
2022/05/15 03:42:59;;;;;;;32.58;7.97;;;15.20;99.90;;;;;;5093451;28;20027;-76
2022/05/15 03:45:25;;;;;;;35.42;8.32;;;15.10;99.90;;;;;;5093636;28;20020;-76
2022/05/15 03:47:53;;;;;;;38.45;8.65;;;15.00;99.90;;;;;;5080973;28;20040;-76
2022/05/15 03:50:22;;;;;;;35.45;8.48;;;14.80;99.90;;;;;;5073075;28;20131;-76
2022/05/15 03:52:48;;;;;;;36.75;8.25;;;14.70;99.90;;;;;;5081417;28;20476;-75
2022/05/15 03:55:14;;;;;;;39.38;8.38;;;14.80;99.90;;;;;;5094237;28;20028;-76
2022/05/15 03:57:41;;;;;;;35.47;8.73;;;14.80;99.90;;;;;;5093421;28;20024;-76
2022/05/15 04:00:10;;;;;;;31.95;9.50;;;14.90;99.90;;;;;;5092969;28;20452;-76
2022/05/15 04:02:39;;;;;;;27.25;9.38;;;14.90;99.90;;;;;;5094305;28;20028;-76
2022/05/15 04:05:07;;;;;;;22.50;7.32;;;14.80;99.90;;;;;;5092757;28;20035;-76
2022/05/15 04:07:33;;;;;;;29.35;8.43;;;14.80;99.90;;;;;;5092722;28;20477;-76
2022/05/15 04:09:59;;;;;;;19.92;7.10;;;14.80;99.90;;;;;;5092552;28;20040;-76
2022/05/15 04:12:25;;;;;;;34.50;7.95;;;14.90;99.90;;;;;;5092474;28;20020;-76
2022/05/15 04:14:51;;;;;;;38.85;7.97;;;14.80;99.90;;;;;;5093149;28;20085;-75
2022/05/15 04:17:17;;;;;;;32.80;7.60;;;14.80;99.90;;;;;;5092396;28;20034;-76
2022/05/15 04:19:42;;;;;;;32.70;8.23;;;14.80;99.90;;;;;;5092848;28;20058;-76
2022/05/15 04:22:09;;;;;;;29.08;8.43;;;14.70;99.90;;;;;;5092762;28;20024;-76
2022/05/15 04:24:35;;;;;;;41.53;9.85;;;14.90;99.90;;;;;;5092273;28;20469;-76
2022/05/15 04:27:03;;;;;;;31.83;8.55;;;15.00;99.90;;;;;;5092422;28;20039;-76
2022/05/15 04:29:28;;;;;;;30.05;8.15;;;15.00;99.90;;;;;;5092700;28;20032;-76
2022/05/15 04:31:58;;;;;;;29.23;7.95;;;14.90;99.90;;;;;;5092583;28;20400;-75
2022/05/15 04:34:26;;;;;;;30.85;8.75;;;15.00;99.90;;;;;;5092648;28;20096;-76
2022/05/15 04:36:52;;;;;;;30.33;8.02;;;15.10;99.90;;;;;;5093665;28;20385;-76
2022/05/15 04:39:18;;;;;;;25.20;8.48;;;15.30;99.90;;;;;;5093350;28;20051;-76
2022/05/15 04:41:44;;;;;;;28.65;8.30;;;15.30;99.90;;;;;;5092767;28;20025;-76
2022/05/15 04:44:11;;;;;;;25.17;8.38;;;15.30;99.90;;;;;;5093282;28;20115;-76
2022/05/15 04:46:37;;;;;;;33.90;9.00;;;15.00;99.90;;;;;;5089842;28;20016;-76
2022/05/15 04:49:04;;;;;;;36.10;9.25;;;14.90;99.90;;;;;;5073359;28;20032;-76
2022/05/15 04:51:30;;;;;;;28.90;8.73;;;14.90;99.90;;;;;;5073122;28;20397;-76
2022/05/15 04:53:56;;;;;;;28.92;8.52;;;15.00;99.90;;;;;;5073291;28;20028;-76
2022/05/15 04:56:22;;;;;;;31.08;9.80;;;15.10;99.90;;;;;;5072991;28;20028;-76
2022/05/15 04:58:48;;;;;;;24.85;9.05;;;14.90;99.90;;;;;;5072989;28;20435;-76
2022/05/15 05:01:14;;;;;;;27.25;7.93;;;15.00;99.90;;;;;;5073077;28;20115;-75
2022/05/15 05:03:40;;;;;;;29.98;9.35;;;15.30;99.90;;;;;;5083290;28;20024;-76
2022/05/15 05:06:06;;;;;;;33.20;9.13;;;15.30;99.90;;;;;;5092886;28;20077;-75
2022/05/15 05:08:32;;;;;;;33.67;8.98;;;15.20;99.90;;;;;;5091306;28;20434;-75
2022/05/15 05:10:57;;;;;;;27.65;8.82;;;15.40;99.90;;;;;;5092820;28;20111;-76
2022/05/15 05:13:23;;;;;;;31.67;8.60;;;15.50;99.90;;;;;;5092861;28;20028;-74
2022/05/15 05:15:49;;;;;;;26.20;8.55;;;15.70;99.90;;;;;;5092976;28;20032;-76
2022/05/15 05:18:17;;;;;;;31.10;8.98;;;15.80;99.90;;;;;;5092990;28;20055;-76
2022/05/15 05:20:44;;;;;;;26.05;9.20;;;15.80;99.90;;;;;;5092835;28;20040;-76
2022/05/15 05:23:10;;;;;;;23.95;8.18;;;15.60;99.90;;;;;;5091588;28;20491;-76
2022/05/15 05:25:36;;;;;;;35.58;8.60;;;15.70;99.90;;;;;;5092794;28;20107;-76
2022/05/15 05:28:02;;;;;;;38.97;9.07;;;15.80;99.90;;;;;;5092908;28;20445;-77
2022/05/15 05:30:28;;;;;;;35.72;8.82;;;15.90;99.90;;;;;;5092918;28;20077;-77
2022/05/15 05:32:54;;;;;;;31.90;8.80;;;15.90;99.90;;;;;;5092975;28;20031;-77
2022/05/15 05:35:22;;;;;;;36.88;9.68;;;15.90;99.90;;;;;;5092691;28;20043;-77
2022/05/15 05:37:48;;;;;;;32.80;8.57;;;15.80;99.90;;;;;;5092431;28;20028;-78
2022/05/15 05:40:14;;;;;;;27.52;8.20;;;16.10;99.90;;;;;;5092644;28;20433;-78
2022/05/15 05:42:41;;;;;;;27.67;8.60;;;16.20;99.90;;;;;;5092652;28;20047;-77
2022/05/15 05:45:08;;;;;;;26.33;8.32;;;16.20;99.90;;;;;;5091036;28;20472;-78
2022/05/15 05:47:34;;;;;;;29.92;9.38;;;16.60;99.90;;;;;;5094130;28;20051;-78
2022/05/15 05:50:01;;;;;;;24.40;7.88;;;16.80;99.90;;;;;;5100996;28;20055;-78
2022/05/15 05:52:27;;;;;;;32.50;9.73;;;16.70;99.90;;;;;;5106182;28;20085;-77
2022/05/15 05:54:53;;;;;;;33.08;9.57;;;16.60;99.90;;;;;;5095930;28;20434;-77
2022/05/15 05:57:19;;;;;;;24.08;8.57;;;16.50;99.90;;;;;;5107754;28;20096;-75
2022/05/15 05:59:45;;;;;;;28.23;9.15;;;16.30;99.90;;;;;;5100634;28;20102;-77
2022/05/15 06:02:11;;;;;;;39.25;9.85;;;16.20;99.90;;;;;;5100394;28;20451;-77
2022/05/15 06:04:40;;;;;;;30.45;8.88;;;16.30;99.90;;;;;;5107221;28;20043;-77
2022/05/15 06:07:12;;;;;;;36.00;10.38;;;16.70;99.90;;;;;;5095311;28;20039;-77
2022/05/15 06:09:39;;;;;;;30.83;9.48;;;16.80;99.90;;;;;;5105045;28;20094;-77
2022/05/15 06:12:06;;;;;;;30.65;9.00;;;17.00;99.90;;;;;;5102358;28;20023;-77
2022/05/15 06:14:32;;;;;;;30.13;9.18;;;17.30;99.90;;;;;;5075921;28;20036;-77
2022/05/15 06:16:58;;;;;;;23.75;8.80;;;17.40;99.90;;;;;;5107210;28;20483;-78
2022/05/15 06:19:24;;;;;;;30.08;9.55;;;17.30;99.90;;;;;;5097349;28;20028;-77
2022/05/15 06:21:49;;;;;;;29.95;9.07;;;17.40;99.90;;;;;;5103663;28;20024;-78
2022/05/15 06:24:15;;;;;;;25.92;9.00;;;17.50;99.90;;;;;;5099515;28;20038;-79
2022/05/15 06:26:41;;;;;;;26.67;8.95;;;17.50;99.90;;;;;;5091029;28;20124;-77
2022/05/15 06:29:07;;;;;;;28.98;8.90;;;17.40;99.90;;;;;;5084245;28;20103;-77
2022/05/15 06:31:33;;;;;;;26.38;9.23;;;17.20;99.90;;;;;;5084944;28;20556;-77
2022/05/15 06:33:58;;;;;;;32.50;9.70;;;17.40;99.90;;;;;;5092098;28;20024;-76
2022/05/15 06:36:25;;;;;;;26.38;9.43;;;17.50;99.90;;;;;;5094098;28;20059;-77
2022/05/15 06:38:51;;;;;;;24.90;9.25;;;17.50;99.90;;;;;;5074831;28;20480;-76
2022/05/15 06:41:17;;;;;;;27.38;9.18;;;17.60;99.90;;;;;;5075123;28;20032;-76
2022/05/15 06:43:42;;;;;;;39.80;9.40;;;17.70;99.90;;;;;;5077988;28;20020;-77
2022/05/15 06:46:08;;;;;;;29.98;9.38;;;18.00;99.90;;;;;;5066317;28;20031;-76
2022/05/15 06:48:35;;;;;;;26.70;8.98;;;18.00;99.90;;;;;;5077562;28;20037;-77
2022/05/15 06:51:03;;;;;;;34.25;8.73;;;18.10;99.90;;;;;;5083503;28;20028;-78
2022/05/15 06:53:29;;;;;;;25.42;9.18;;;18.20;99.90;;;;;;5078601;28;20111;-77
2022/05/15 06:58:39;;;;;;;21.83;8.73;;;18.20;99.90;;;;;;5081842;28;20025;-78
2022/05/15 07:01:05;;;;;;;32.28;9.50;;;18.40;99.90;;;;;;5086813;28;20096;-76
2022/05/15 07:03:31;;;;;;;30.83;8.75;;;18.90;99.90;;;;;;5081449;28;20039;-76
2022/05/15 07:05:57;;;;;;;27.75;8.00;;;19.10;99.90;;;;;;5085463;28;20036;-75
2022/05/15 07:08:23;;;;;;;30.27;8.85;;;19.20;99.90;;;;;;5078470;28;20103;-76
2022/05/15 07:10:48;;;;;;;23.67;8.50;;;19.40;99.90;;;;;;5078280;28;20512;-77
2022/05/15 07:13:14;;;;;;;24.83;7.80;;;19.10;99.90;;;;;;5075531;28;20388;-77
2022/05/15 07:15:41;;;;;;;28.73;8.35;;;19.30;99.90;;;;;;5076660;28;20125;-77
2022/05/15 07:18:07;;;;;;;22.83;8.25;;;19.30;99.90;;;;;;5073529;28;20425;-77
2022/05/15 07:20:34;;;;;;;30.75;8.13;;;19.30;99.90;;;;;;5074285;28;20021;-76
2022/05/15 07:23:00;;;;;;;30.38;7.32;;;19.70;99.90;;;;;;5074072;28;20093;-77
2022/05/15 07:25:25;;;;;;;23.42;7.90;;;20.00;99.90;;;;;;5070972;28;20491;-76
2022/05/15 07:27:51;;;;;;;25.58;8.23;;;20.30;99.90;;;;;;5074169;28;20045;-76
2022/05/15 07:30:17;;;;;;;27.55;8.40;;;20.30;99.90;;;;;;5083911;28;20093;-76
2022/05/15 07:32:43;;;;;;;27.13;8.65;;;20.10;99.90;;;;;;5074728;28;20016;-76
2022/05/15 07:35:09;;;;;;;25.38;8.05;;;20.30;99.10;;;;;;5078252;28;20036;-75
2022/05/15 07:37:35;;;;;;;25.00;8.15;;;20.40;99.90;;;;;;5074313;28;20028;-76
2022/05/15 07:40:01;;;;;;;25.02;7.57;;;20.30;99.90;;;;;;5075290;28;20047;-76
2022/05/15 07:42:26;;;;;;;23.00;7.57;;;20.50;99.90;;;;;;5079669;28;20488;-76
2022/05/15 07:44:57;;;;;;;21.92;8.35;;;20.80;98.90;;;;;;5080694;28;20059;-76
2022/05/15 07:47:25;;;;;;;24.38;7.20;;;21.00;98.30;;;;;;5077320;28;20030;-76
2022/05/15 07:49:51;;;;;;;24.73;7.18;;;21.00;98.50;;;;;;5079123;28;20039;-76
2022/05/15 07:52:17;;;;;;;23.30;6.88;;;21.20;98.70;;;;;;5086222;28;20039;-76
2022/05/15 07:54:43;;;;;;;21.85;7.60;;;21.30;97.90;;;;;;5084418;28;20017;-75
2022/05/15 07:57:09;;;;;;;17.83;6.35;;;21.50;97.40;;;;;;5078771;28;20518;-75
2022/05/15 07:59:35;;;;;;;26.75;7.07;;;21.50;97.70;;;;;;5078451;28;20525;-76
2022/05/15 08:02:06;;;;;;;18.42;6.60;;;21.80;97.10;;;;;;5075992;28;20337;-76
2022/05/15 08:08:00;;;;;;;16.42;6.40;;;21.80;97.80;;;;;;5076867;28;20063;-77
2022/05/15 08:10:07;;;;;;;23.00;5.75;;;21.90;96.10;;;;;;5083121;28;20377;-77
2022/05/15 08:12:34;;;;;;;17.70;5.72;;;22.00;95.50;;;;;;5076153;28;20032;-77
2022/05/15 08:15:01;;;;;;;17.52;6.38;;;21.90;95.70;;;;;;5074583;28;20392;-76
2022/05/15 08:17:27;;;;;;;19.85;5.95;;;22.40;95.70;;;;;;5075651;28;20071;-77
2022/05/15 08:25:21;;;;;;;17.25;5.20;;;22.80;94.60;;;;;;5078454;28;20028;-76
2022/05/15 08:27:47;;;;;;;24.17;6.45;;;22.90;94.20;;;;;;5076106;28;20099;-77
2022/05/15 08:30:13;;;;;;;21.13;6.57;;;23.00;94.40;;;;;;5075663;28;20060;-77
2022/05/15 08:32:39;;;;;;;22.35;5.50;;;23.10;93.30;;;;;;5072182;28;20091;-77
2022/05/15 08:35:05;;;;;;;17.27;5.13;;;23.30;93.50;;;;;;5076491;28;20112;-76
2022/05/15 08:37:31;;;;;;;12.85;4.70;;;23.50;92.60;;;;;;5069319;28;20636;-76
2022/05/15 08:39:57;;;;;;;20.23;5.05;;;23.30;92.80;;;;;;5071913;28;20086;-76
2022/05/15 08:42:33;;;;;;;17.33;5.68;;;23.10;93.20;;;;;;5071727;28;20020;-76
2022/05/15 08:45:01;;;;;;;28.52;5.70;;;23.10;92.80;;;;;;5086936;28;20032;-76
2022/05/15 08:47:46;;;;;;;14.98;4.55;;;23.40;93.70;;;;;;5084745;28;20028;-76
2022/05/15 08:50:18;;;;;;;17.30;5.13;;;23.30;92.70;;;;;;5093701;28;20036;-76
2022/05/15 08:53:02;;;;;;;21.02;5.15;;;23.40;91.70;;;;;;5092284;28;20032;-76
2022/05/15 08:55:55;;;;;;;12.32;5.03;;;23.70;92.30;;;;;;5077334;28;20090;-73
2022/05/15 08:58:48;;;;;;;20.75;5.38;;;23.90;90.90;;;;;;5078240;28;20126;-76
2022/05/15 09:01:18;;;;;;;14.38;5.68;;;24.10;91.10;;;;;;5079209;28;20503;-76
2022/05/15 09:03:43;;;;;;;19.45;5.53;;;23.90;90.10;;;;;;5073767;28;20025;-74
2022/05/15 09:06:15;;;;;;;15.52;4.93;;;24.00;89.90;;;;;;5080133;28;20051;-73
2022/05/15 09:09:00;;;;;;;21.20;5.20;;;24.30;90.90;;;;;;5074475;28;20025;-74
2022/05/15 09:11:50;;;;;;;11.60;4.75;;;24.50;90.70;;;;;;5072816;28;20032;-74
2022/05/15 09:14:40;;;;;;;12.20;4.47;;;24.40;87.40;;;;;;5097682;28;20109;-73
2022/05/15 09:17:21;;;;;;;11.88;4.22;;;24.50;88.20;;;;;;5100147;28;20108;-74
2022/05/15 09:19:57;;;;;;;19.00;3.97;;;24.40;88.40;;;;;;5109399;28;20024;-75
2022/05/15 09:22:28;;;;;;;15.38;4.32;;;24.40;88.90;;;;;;5100645;28;20089;-74
2022/05/15 09:24:55;;;;;;;24.05;5.95;;;24.20;86.70;;;;;;5100804;28;20031;-74
2022/05/15 09:27:26;;;;;;;12.70;4.38;;;24.20;88.20;;;;;;5100866;28;20020;-75
2022/05/15 09:29:52;;;;;;;;;;;24.30;88.50;;;;;;5091454;28;20044;-74
2022/05/15 09:32:39;;;;;;;16.52;4.68;;;24.50;87.00;;;;;;5080242;28;20011;-74
2022/05/15 09:35:25;;;;;;;14.70;4.28;;;24.60;87.10;;;;;;5071122;28;20094;-74
2022/05/15 09:43:30;;;;;;;12.57;3.55;;;25.10;88.10;;;;;;5076365;28;20078;-74
2022/05/15 09:43:32;;;;;;;17.55;3.92;;;25.00;85.10;;;;;;5089131;28;20138;-74
2022/05/15 09:46:11;;;;;;;18.83;3.28;;;25.40;87.50;;;;;;5075283;28;20040;-72
2022/05/15 09:48:51;;;;;;;11.00;3.60;;;25.40;86.00;;;;;;5095119;28;20035;-74
2022/05/15 09:51:30;;;;;;;9.63;3.33;;;25.40;85.50;;;;;;5082431;28;20082;-73
2022/05/15 09:53:57;;;;;;;9.95;2.95;;;25.30;83.60;;;;;;5083960;28;20028;-75
2022/05/15 09:56:32;;;;;;;19.58;3.45;;;25.60;83.00;;;;;;5086323;28;20074;-74
2022/05/15 09:59:25;;;;;;;8.88;2.88;;;25.70;84.10;;;;;;5086055;28;20027;-73
2022/05/15 10:01:57;;;;;;;10.40;2.83;;;25.80;81.40;;;;;;5097826;28;20028;-74
2022/05/15 10:04:32;;;;;;;17.25;3.90;;;26.10;84.50;;;;;;5097396;28;20036;-74
2022/05/15 10:07:02;;;;;;;11.80;3.40;;;26.20;82.00;;;;;;5092970;28;20039;-73
2022/05/15 10:09:40;;;;;;;12.63;3.05;;;26.10;83.90;;;;;;5101751;28;20043;-74
2022/05/15 10:12:08;;;;;;;16.65;3.13;;;26.30;79.70;;;;;;5110710;28;20484;-74
2022/05/15 10:14:41;;;;;;;12.98;3.45;;;26.50;81.20;;;;;;5081230;28;20024;-74
2022/05/15 10:17:10;;;;;;;13.93;3.00;;;26.60;82.10;;;;;;5079509;28;20016;-74
2022/05/15 10:19:45;;;;;;;12.43;3.65;;;27.10;81.70;;;;;;5077070;28;20054;-74
2022/05/15 10:22:22;;;;;;;10.00;3.30;;;27.00;83.70;;;;;;5076861;28;20469;-73
2022/05/15 10:24:49;;;;;;;6.45;2.53;;;26.90;81.50;;;;;;5093254;28;20056;-74
2022/05/15 10:27:27;;;;;;;12.90;3.08;;;27.00;80.40;;;;;;5093978;28;20369;-74
2022/05/15 10:29:55;;;;;;;9.65;2.78;;;26.40;78.50;;;;;;5077714;28;20044;-74
2022/05/15 10:32:44;;;;;;;8.25;2.55;;;26.30;77.90;;;;;;5074496;28;20025;-74
2022/05/15 10:35:13;;;;;;;12.55;3.13;;;26.40;80.00;;;;;;5068537;28;20048;-74
2022/05/15 10:37:53;;;;;;;9.90;3.10;;;26.70;80.50;;;;;;5075338;28;20133;-74
2022/05/15 10:40:21;;;;;;;10.38;2.80;;;27.30;80.50;;;;;;5074249;28;20508;-74
2022/05/15 10:42:46;;;;;;;10.07;2.33;;;27.60;79.30;;;;;;5075330;28;20017;-74
2022/05/15 10:45:22;;;;;;;14.05;3.60;;;27.60;77.20;;;;;;5076111;28;20034;-74
2022/05/15 10:48:12;;;;;;;14.60;2.60;;;27.50;77.20;;;;;;5088751;28;20470;-74
2022/05/15 10:50:51;;;;;;;9.25;2.67;;;27.60;77.40;;;;;;5094376;28;20052;-74
2022/05/15 10:57:25;;;;;;;10.32;2.65;;;27.80;77.10;;;;;;5095397;28;20487;-74
2022/05/15 11:00:10;;;;;;;9.68;2.42;;;27.90;77.70;;;;;;5085375;28;20076;-74
2022/05/15 11:03:12;;;;;;;7.13;2.50;;;27.80;74.10;;;;;;5095334;28;20028;-75
2022/05/15 11:05:38;;;;;;;13.55;2.47;;;27.50;77.00;;;;;;5083332;28;20064;-76
2022/05/15 11:08:14;;;;;;;12.52;2.20;;;28.10;78.50;;;;;;5072973;28;20063;-77
2022/05/15 11:10:56;;;;;;;11.27;2.10;;;28.40;76.00;;;;;;5072944;28;20044;-77
2022/05/15 11:13:46;;;;;;;9.15;2.17;;;28.90;76.10;;;;;;5074780;28;20020;-78
2022/05/15 11:16:46;;;;;;;8.05;2.08;;;28.80;75.60;;;;;;5074776;28;20028;-78
2022/05/15 11:19:36;;;;;;;7.45;2.45;;;29.00;73.90;;;;;;5073999;28;20461;-77
2022/05/15 11:22:18;;;;;;;10.50;3.03;;;29.00;73.40;;;;;;5087926;28;20020;-80
2022/05/15 11:25:13;;;;;;;16.15;2.40;;;29.00;74.60;;;;;;5095134;28;20084;-77
2022/05/15 11:27:51;;;;;;;8.25;2.22;;;28.80;73.60;;;;;;5086240;28;20408;-79
2022/05/15 11:30:39;;;;;;;6.95;2.58;;;29.40;74.70;;;;;;5073502;28;20370;-80
2022/05/15 11:33:25;;;;;;;10.68;2.67;;;29.90;73.70;;;;;;5074565;28;20047;-79
2022/05/15 11:36:29;;;;;;;5.63;2.28;;;29.70;73.70;;;;;;5092542;28;20492;-79
2022/05/15 11:38:55;;;;;;;13.57;2.45;;;30.10;73.30;;;;;;5087634;28;20071;-79
2022/05/15 11:42:08;;;;;;;8.98;2.30;;;30.00;71.30;;;;;;5094696;28;20028;-80
2022/05/15 11:44:48;;;;;;;6.22;2.05;;;29.50;72.80;;;;;;5089345;28;20043;-79
2022/05/15 11:47:31;;;;;;;9.57;2.10;;;29.70;71.90;;;;;;5083597;28;20032;-78
2022/05/15 11:50:04;;;;;;;9.43;2.38;;;30.40;73.10;;;;;;5073597;28;20127;-79
2022/05/15 11:52:39;;;;;;;13.73;2.95;;;30.10;71.70;;;;;;5074018;28;20048;-79
2022/05/15 11:55:36;;;;;;;5.55;2.20;;;29.80;69.20;;;;;;5073860;28;20067;-79
2022/05/15 11:58:36;;;;;;;6.13;2.17;;;29.20;71.20;;;;;;5072822;28;20469;-79
2022/05/15 12:01:10;;;;;;;8.60;2.05;;;29.10;71.10;;;;;;5074027;28;20031;-79
2022/05/15 12:03:39;;;;;;;8.10;2.35;;;29.20;70.60;;;;;;5083835;28;20036;-79
2022/05/15 12:06:08;;;;;;;12.88;2.42;;;28.70;71.20;;;;;;5093862;28;20059;-78
2022/05/15 12:08:37;;;;;;;8.00;2.83;;;29.70;71.30;;;;;;5094189;28;20036;-78
2022/05/15 12:11:18;;;;;;;5.95;2.85;;;29.30;69.20;;;;;;5094244;28;20028;-78
2022/05/15 12:13:46;;;;;;;9.70;2.15;;;29.10;69.20;;;;;;5094610;28;20493;-78
2022/05/15 12:16:23;;;;;;;11.15;2.20;;;29.60;70.70;;;;;;5094152;28;20017;-79
2022/05/15 12:19:22;;;;;;;10.45;2.50;;;30.00;66.60;;;;;;5094912;28;20043;-80
2022/05/15 12:21:52;;;;;;;8.95;2.10;;;29.90;69.40;;;;;;5094657;28;20088;-79
2022/05/15 12:24:27;;;;;;;7.65;2.50;;;29.50;67.20;;;;;;5094033;28;20510;-78
2022/05/15 12:27:12;;;;;;;12.60;2.65;;;29.30;68.80;;;;;;5094161;28;20070;-76
2022/05/15 12:29:56;;;;;;;8.63;2.00;;;29.40;68.00;;;;;;5092817;28;20032;-78
2022/05/15 12:32:29;;;;;;;6.95;2.03;;;29.80;68.90;;;;;;5093134;28;20027;-76
2022/05/15 12:34:55;;;;;;;10.10;2.22;;;30.30;69.50;;;;;;5093799;28;20058;-78
2022/05/15 12:37:25;;;;;;;8.23;2.65;;;30.30;67.10;;;;;;5093836;28;20032;-78
2022/05/15 12:39:52;;;;;;;8.57;2.53;;;30.80;68.10;;;;;;5093647;28;20076;-76
2022/05/15 12:42:35;;;;;;;5.38;2.03;;;31.10;70.60;;;;;;5093348;28;20020;-78
2022/05/15 12:45:02;;;;;;;6.65;1.80;;;31.40;69.40;;;;;;5092675;28;20028;-77
2022/05/15 12:47:32;;;;;;;9.80;1.90;;;31.20;67.20;;;;;;5081601;28;20028;-78
2022/05/15 12:50:03;;;;;;;11.35;2.22;;;31.10;66.20;;;;;;5075630;28;20930;-77
2022/05/15 12:52:33;;;;;;;7.30;2.25;;;30.70;65.80;;;;;;5081790;28;20469;-78
2022/05/15 12:55:09;;;;;;;5.90;2.00;;;30.30;65.20;;;;;;5073584;28;20120;-78
2022/05/15 12:57:50;;;;;;;9.20;2.50;;;30.50;66.90;;;;;;5073419;28;20025;-78
2022/05/15 13:00:22;;;;;;;7.75;2.30;;;30.60;65.60;;;;;;5072894;28;20033;-79
2022/05/15 13:02:48;;;;;;;5.50;1.63;;;31.10;66.60;;;;;;5076051;28;20024;-80
2022/05/15 13:05:25;;;;;;;8.00;2.25;;;31.30;64.40;;;;;;5093220;28;20050;-79
2022/05/15 13:08:00;;;;;;;3.90;1.65;;;31.70;65.10;;;;;;5093077;28;20583;-79
2022/05/15 13:10:28;;;;;;;7.68;2.33;;;31.90;63.40;;;;;;5093649;28;20039;-80
2022/05/15 13:13:20;;;;;;;7.05;2.17;;;32.60;66.50;;;;;;5093344;28;20093;-78
2022/05/15 13:15:49;;;;;;;15.45;2.22;;;33.20;65.50;;;;;;5093490;28;20103;-77